createdAt,value
2019-04-01T00:02:09.312Z,12.30
2019-04-01T00:04:41.490Z,12.15
2019-04-01T00:07:09.934Z,13.25
2019-04-01T00:09:38.388Z,13.22
2019-04-01T00:12:06.829Z,13.35
2019-04-01T00:14:35.290Z,13.85
2019-04-01T00:17:03.728Z,13.30
2019-04-01T00:19:32.441Z,13.30
2019-04-01T00:22:01.142Z,14.33
2019-04-01T00:24:29.872Z,14.65
2019-04-01T00:26:58.581Z,15.05
2019-04-01T00:29:27.303Z,14.93
2019-04-01T00:31:56.032Z,14.45
2019-04-01T00:34:28.156Z,14.63
2019-04-01T00:36:56.890Z,14.35
2019-04-01T00:39:25.338Z,15.13
2019-04-01T00:41:58.170Z,15.15
2019-04-01T00:44:26.614Z,14.60
2019-04-01T00:46:55.074Z,15.10
2019-04-01T00:49:25.706Z,15.63
2019-04-01T00:51:54.213Z,16.87
2019-04-01T00:54:22.913Z,17.15
2019-04-01T00:56:51.625Z,16.42
2019-04-01T00:59:20.067Z,17.62
2019-04-01T01:01:48.512Z,17.50
2019-04-01T01:04:17.238Z,17.07
2019-04-01T01:06:45.684Z,18.42
2019-04-01T01:09:14.149Z,18.40
2019-04-01T01:11:42.598Z,17.85
2019-04-01T01:14:11.308Z,19.17
2019-04-01T01:16:51.901Z,18.73
2019-04-01T01:19:21.127Z,20.10
2019-04-01T01:21:49.827Z,20.20
2019-04-01T01:24:18.314Z,21.02
2019-04-01T01:26:46.804Z,21.33
2019-04-01T01:29:15.270Z,22.20
2019-04-01T01:31:43.973Z,22.27
2019-04-01T01:34:16.672Z,22.50
2019-04-01T01:36:45.122Z,24.20
2019-04-01T01:39:13.590Z,24.30
2019-04-01T01:41:42.043Z,24.23
2019-04-01T01:44:10.733Z,23.38
2019-04-01T01:46:39.459Z,25.45
2019-04-01T01:49:07.904Z,26.97
2019-04-01T01:51:36.404Z,25.90
2019-04-01T01:54:04.851Z,28.38
2019-04-01T01:56:33.584Z,28.05
2019-04-01T01:59:02.022Z,29.23
2019-04-01T02:01:30.754Z,29.45
2019-04-01T02:03:59.203Z,29.87
2019-04-01T02:06:30.337Z,28.85
2019-04-01T02:08:58.790Z,30.50
2019-04-01T02:11:27.271Z,30.62
2019-04-01T02:13:55.718Z,31.12
2019-04-01T02:16:24.158Z,31.15
2019-04-01T02:18:52.618Z,35.20
2019-04-01T02:21:21.063Z,35.92
2019-04-01T02:23:49.517Z,34.92
2019-04-01T02:26:17.962Z,37.42
2019-04-01T02:28:46.423Z,37.48
2019-04-01T02:31:16.267Z,36.48
2019-04-01T02:33:44.725Z,36.35
2019-04-01T02:36:16.496Z,39.03
2019-04-01T02:38:45.225Z,41.73
2019-04-01T02:41:13.685Z,39.67
2019-04-01T02:43:42.302Z,40.75
2019-04-01T02:46:11.035Z,40.50
2019-04-01T02:48:39.728Z,42.58
2019-04-01T02:51:08.190Z,43.28
2019-04-01T02:53:36.630Z,43.35
2019-04-01T02:56:05.424Z,43.25
2019-04-01T02:58:34.190Z,43.25
2019-04-01T03:01:02.674Z,43.80
2019-04-01T03:03:31.455Z,43.83
2019-04-01T03:06:00.836Z,44.58
2019-04-01T03:08:29.287Z,43.80
2019-04-01T03:10:58.020Z,44.77
2019-04-01T03:13:26.571Z,44.95
2019-04-01T03:15:55.269Z,46.05
2019-04-01T03:18:24.114Z,46.70
2019-04-01T03:20:52.556Z,45.30
2019-04-01T03:23:21.277Z,45.35
2019-04-01T03:25:49.730Z,46.60
2019-04-01T03:28:18.207Z,46.58
2019-04-01T03:30:46.733Z,47.05
2019-04-01T03:33:15.542Z,47.08
2019-04-01T03:35:44.302Z,44.77
2019-04-01T03:38:13.023Z,47.10
2019-04-01T03:40:41.488Z,47.58
2019-04-01T03:43:09.931Z,47.10
2019-04-01T03:45:38.391Z,47.27
2019-04-01T03:48:06.835Z,47.25
2019-04-01T03:50:35.542Z,46.77
2019-04-01T03:53:04.347Z,48.58
2019-04-01T03:55:33.052Z,47.27
2019-04-01T03:58:01.832Z,47.98
2019-04-01T04:00:30.537Z,48.40
2019-04-01T04:02:58.988Z,47.67
2019-04-01T04:05:27.479Z,47.62
2019-04-01T04:07:56.165Z,50.38
2019-04-01T04:10:24.981Z,47.25
2019-04-01T04:12:53.410Z,48.48
2019-04-01T04:15:22.144Z,48.83
2019-04-01T04:17:50.662Z,50.20
2019-04-01T04:20:19.387Z,49.38
2019-04-01T04:22:47.835Z,48.10
2019-04-01T04:25:16.566Z,47.85
2019-04-01T04:27:45.263Z,47.60
2019-04-01T04:30:16.777Z,48.87
2019-04-01T04:32:45.243Z,46.13
2019-04-01T04:35:13.682Z,49.18
2019-04-01T04:37:42.463Z,48.08
2019-04-01T04:40:11.291Z,47.85
2019-04-01T04:42:40.019Z,49.45
2019-04-01T04:45:08.800Z,47.93
2019-04-01T04:47:37.531Z,47.90
2019-04-01T04:50:06.610Z,48.98
2019-04-01T04:52:35.072Z,46.77
2019-04-01T04:55:04.128Z,47.15
2019-04-01T04:57:32.928Z,48.40
2019-04-01T05:00:01.635Z,44.67
2019-04-01T05:02:30.165Z,47.62
2019-04-01T05:04:58.854Z,47.03
2019-04-01T05:07:27.300Z,47.25
2019-04-01T05:09:55.753Z,46.83
2019-04-01T05:12:24.193Z,47.45
2019-04-01T05:14:52.659Z,48.48
2019-04-01T05:17:21.347Z,47.48
2019-04-01T05:19:49.990Z,47.73
2019-04-01T05:22:21.809Z,45.83
2019-04-01T05:24:51.249Z,47.03
2019-04-01T05:27:22.756Z,47.03
2019-04-01T05:29:53.970Z,48.02
2019-04-01T05:32:22.751Z,47.43
2019-04-01T05:34:54.598Z,48.73
2019-04-01T05:37:23.053Z,48.60
2019-04-01T05:39:51.671Z,48.38
2019-04-01T05:42:20.193Z,47.88
2019-04-01T05:44:48.638Z,48.60
2019-04-01T05:47:18.495Z,48.00
2019-04-01T05:49:47.250Z,46.95
2019-04-01T05:52:16.015Z,47.25
2019-04-01T05:54:44.822Z,45.15
2019-04-01T05:57:14.250Z,47.03
2019-04-01T05:59:43.030Z,46.55
2019-04-01T06:02:11.665Z,46.80
2019-04-01T06:04:40.167Z,48.35
2019-04-01T06:07:11.553Z,46.40
2019-04-01T06:09:40.284Z,47.03
2019-04-01T06:12:08.758Z,47.25
2019-04-01T06:14:37.470Z,45.70
2019-04-01T06:17:05.914Z,48.17
2019-04-01T06:19:34.631Z,45.05
2019-04-01T06:22:03.139Z,45.75
2019-04-01T06:24:31.676Z,46.80
2019-04-01T06:27:00.383Z,45.70
2019-04-01T06:29:29.399Z,45.70
2019-04-01T06:31:58.298Z,47.17
2019-04-01T06:34:27.002Z,47.33
2019-04-01T06:36:55.470Z,46.75
2019-04-01T06:39:24.182Z,47.15
2019-04-01T06:41:52.782Z,45.35
2019-04-01T06:44:21.379Z,46.40
2019-04-01T06:46:49.891Z,45.83
2019-04-01T06:49:20.343Z,46.40
2019-04-01T06:51:48.532Z,47.23
2019-04-01T06:54:16.975Z,46.60
2019-04-01T06:56:45.414Z,45.92
2019-04-01T06:59:13.865Z,45.03
2019-04-01T07:01:42.394Z,46.42
2019-04-01T07:04:10.989Z,47.62
2019-04-01T07:06:39.429Z,46.88
2019-04-01T07:09:07.880Z,46.20
2019-04-01T07:11:36.358Z,44.48
2019-04-01T07:14:05.548Z,47.50
2019-04-01T07:16:33.990Z,45.52
2019-04-01T07:19:02.692Z,45.40
2019-04-01T07:21:31.266Z,45.85
2019-04-01T07:23:59.963Z,45.55
2019-04-01T07:26:28.417Z,46.02
2019-04-01T07:28:57.259Z,45.35
2019-04-01T07:31:25.726Z,46.45
2019-04-01T07:33:54.398Z,47.65
2019-04-01T07:36:23.196Z,44.80
2019-04-01T07:38:51.664Z,45.70
2019-04-01T07:41:20.374Z,45.65
2019-04-01T07:43:48.822Z,43.65
2019-04-01T07:46:17.291Z,44.75
2019-04-01T07:48:46.351Z,45.05
2019-04-01T07:51:15.229Z,43.83
2019-04-01T07:53:44.148Z,46.18
2019-04-01T07:56:12.586Z,42.85
2019-04-01T07:58:41.409Z,45.03
2019-04-01T08:01:09.849Z,45.45
2019-04-01T08:03:41.686Z,43.60
2019-04-01T08:06:08.940Z,43.33
2019-04-01T08:08:37.424Z,45.20
2019-04-01T08:11:06.116Z,43.98
2019-04-01T08:13:34.834Z,43.58
2019-04-01T08:16:03.281Z,44.55
2019-04-01T08:18:33.955Z,42.03
2019-04-01T08:21:02.579Z,44.88
2019-04-01T08:23:31.069Z,43.98
2019-04-01T08:25:59.541Z,41.42
2019-04-01T08:28:27.976Z,42.58
2019-04-01T08:30:56.472Z,40.75
2019-04-01T08:33:24.908Z,40.70
2019-04-01T08:35:53.396Z,42.65
2019-04-01T08:38:22.295Z,40.33
2019-04-01T08:40:50.745Z,42.78
2019-04-01T08:43:19.547Z,42.88
2019-04-01T08:45:48.013Z,41.58
2019-04-01T08:48:16.770Z,42.43
2019-04-01T08:50:45.313Z,41.08
2019-04-01T08:53:13.754Z,38.25
2019-04-01T08:55:42.455Z,38.13
2019-04-01T08:58:10.917Z,39.85
2019-04-01T09:00:40.099Z,39.10
2019-04-01T09:03:08.815Z,39.88
2019-04-01T09:05:37.258Z,41.05
2019-04-01T09:08:06.054Z,39.00
2019-04-01T09:10:35.804Z,39.63
2019-04-01T09:13:04.271Z,38.78
2019-04-01T09:15:32.778Z,38.48
2019-04-01T09:18:01.240Z,37.17
2019-04-01T09:20:29.937Z,38.92
2019-04-01T09:22:59.330Z,36.85
2019-04-01T09:25:28.306Z,38.35
2019-04-01T09:27:57.129Z,35.20
2019-04-01T09:30:25.590Z,35.52
2019-04-01T09:32:54.300Z,36.73
2019-04-01T09:35:22.766Z,36.35
2019-04-01T09:37:51.225Z,36.05
2019-04-01T09:40:19.689Z,35.55
2019-04-01T09:42:48.128Z,36.85
2019-04-01T09:45:17.005Z,37.17
2019-04-01T09:47:45.725Z,38.42
2019-04-01T09:50:14.622Z,37.85
2019-04-01T09:52:43.320Z,38.38
2019-04-01T09:58:40.501Z,37.08
2019-04-01T10:01:09.381Z,37.48
2019-04-01T10:03:37.834Z,35.10
2019-04-01T10:06:06.296Z,36.03
2019-04-01T10:08:42.148Z,33.58
2019-04-01T10:11:04.997Z,34.13
2019-04-01T10:13:33.459Z,34.30
2019-04-01T10:16:02.189Z,35.45
2019-04-01T10:18:30.894Z,34.65
2019-04-01T10:20:59.348Z,36.53
2019-04-01T10:23:27.814Z,35.95
2019-04-01T10:25:56.509Z,35.50
2019-04-01T10:28:24.974Z,34.60
2019-04-01T10:30:53.498Z,35.65
2019-04-01T10:33:21.975Z,35.50
2019-04-01T10:35:50.481Z,35.25
2019-04-01T10:38:19.007Z,35.50
2019-04-01T10:40:47.446Z,33.92
2019-04-01T10:43:16.187Z,34.88
2019-04-01T10:45:44.810Z,32.88
2019-04-01T10:48:13.557Z,32.42
2019-04-01T10:50:42.339Z,32.50
2019-04-01T10:53:10.907Z,31.62
2019-04-01T10:55:39.506Z,33.48
2019-04-01T10:58:08.376Z,34.55
2019-04-01T11:00:36.863Z,31.80
2019-04-01T11:03:06.173Z,34.43
2019-04-01T11:05:35.013Z,34.98
2019-04-01T11:08:03.850Z,33.63
2019-04-01T11:10:32.650Z,33.38
2019-04-01T11:13:01.354Z,33.63
2019-04-01T11:15:29.807Z,30.85
2019-04-01T11:17:58.263Z,32.58
2019-04-01T11:20:26.982Z,31.17
2019-04-01T11:22:55.708Z,32.55
2019-04-01T11:25:24.156Z,34.25
2019-04-01T11:27:52.624Z,33.60
2019-04-01T11:30:21.677Z,32.98
2019-04-01T11:32:50.218Z,33.02
2019-04-01T11:35:18.989Z,31.07
2019-04-01T11:37:47.511Z,30.32
2019-04-01T11:40:16.137Z,31.97
2019-04-01T11:42:44.999Z,33.42
2019-04-01T11:45:13.759Z,31.40
2019-04-01T11:47:42.385Z,31.93
2019-04-01T11:50:11.213Z,30.88
2019-04-01T11:52:39.723Z,31.93
2019-04-01T11:55:09.178Z,32.28
2019-04-01T11:57:38.079Z,29.87
2019-04-01T12:00:12.690Z,29.72
2019-04-01T12:02:41.305Z,29.10
2019-04-01T12:05:09.902Z,28.20
2019-04-01T12:07:38.342Z,30.55
2019-04-01T12:10:08.030Z,30.70
2019-04-01T12:12:36.551Z,30.60
2019-04-01T12:15:06.647Z,30.97
2019-04-01T12:17:35.094Z,30.70
2019-04-01T12:20:04.609Z,30.88
2019-04-01T12:22:33.310Z,28.83
2019-04-01T12:25:01.761Z,31.57
2019-04-01T12:27:30.217Z,30.40
2019-04-01T12:29:58.917Z,30.80
2019-04-01T12:32:27.382Z,28.83
2019-04-01T12:34:55.827Z,28.95
2019-04-01T12:37:24.561Z,30.37
2019-04-01T12:39:53.260Z,28.42
2019-04-01T12:42:21.725Z,29.77
2019-04-01T12:44:53.396Z,28.67
2019-04-01T12:47:21.825Z,27.75
2019-04-01T12:49:50.549Z,27.07
2019-04-01T12:52:19.258Z,26.23
2019-04-01T12:54:47.710Z,25.77
2019-04-01T12:57:18.786Z,27.77
2019-04-01T12:59:46.603Z,25.95
2019-04-01T13:02:18.123Z,24.25
2019-04-01T13:04:47.361Z,28.23
2019-04-01T13:07:15.935Z,27.60
2019-04-01T13:09:44.662Z,27.17
2019-04-01T13:12:13.105Z,26.17
2019-04-01T13:14:41.585Z,25.70
2019-04-01T13:17:10.031Z,28.25
2019-04-01T13:19:38.733Z,28.05
2019-04-01T13:22:09.048Z,26.97
2019-04-01T13:24:37.937Z,25.37
2019-04-01T13:27:09.122Z,26.15
2019-04-01T13:29:36.561Z,26.33
2019-04-01T13:32:05.361Z,26.65
2019-04-01T13:34:33.806Z,22.58
2019-04-01T13:37:02.262Z,27.60
2019-04-01T13:39:31.021Z,27.17
2019-04-01T13:41:59.747Z,25.50
2019-04-01T13:44:36.799Z,29.30
2019-04-01T13:46:58.662Z,22.45
2019-04-01T13:49:27.106Z,26.23
2019-04-01T13:51:55.805Z,24.25
2019-04-01T13:54:24.269Z,23.65
2019-04-01T13:56:52.733Z,25.82
2019-04-01T13:59:22.047Z,24.00
2019-04-01T14:01:50.489Z,24.67
2019-04-01T14:04:18.966Z,22.62
2019-04-01T14:06:47.411Z,25.77
2019-04-01T14:09:16.127Z,22.40
2019-04-01T14:11:44.577Z,23.32
2019-04-01T14:14:13.035Z,21.27
2019-04-01T14:16:41.776Z,22.65
2019-04-01T14:19:10.583Z,20.27
2019-04-01T14:21:39.027Z,22.15
2019-04-01T14:24:07.479Z,24.25
2019-04-01T14:26:36.193Z,25.45
2019-04-01T14:29:04.897Z,23.52
2019-04-01T14:31:33.456Z,23.47
2019-04-01T14:34:01.969Z,23.15
2019-04-01T14:36:30.433Z,22.25
2019-04-01T14:38:59.137Z,23.35
2019-04-01T14:41:27.859Z,23.25
2019-04-01T14:43:56.315Z,23.20
2019-04-01T14:46:25.109Z,21.87
2019-04-01T14:48:53.558Z,25.35
2019-04-01T14:51:22.288Z,22.95
2019-04-01T14:53:50.745Z,24.95
2019-04-01T14:56:19.456Z,23.05
2019-04-01T14:58:48.156Z,26.57
2019-04-01T15:01:16.680Z,26.90
2019-04-01T15:03:45.145Z,22.98
2019-04-01T15:06:13.858Z,24.50
2019-04-01T15:08:42.313Z,22.48
2019-04-01T15:11:12.237Z,26.27
2019-04-01T15:13:40.861Z,19.45
2019-04-01T15:16:09.300Z,24.87
2019-04-01T15:18:37.764Z,23.77
2019-04-01T15:21:06.282Z,26.23
2019-04-01T15:23:34.770Z,25.62
2019-04-01T15:26:03.742Z,25.08
2019-04-01T15:28:32.753Z,27.25
2019-04-01T15:31:01.485Z,27.27
2019-04-01T15:33:29.916Z,25.68
2019-04-01T15:35:58.633Z,26.87
2019-04-01T15:38:27.090Z,24.92
2019-04-01T15:40:58.198Z,23.45
2019-04-01T15:43:26.048Z,24.05
2019-04-01T15:45:54.779Z,23.70
2019-04-01T15:48:23.474Z,27.48
2019-04-01T15:50:52.199Z,24.00
2019-04-01T15:53:23.503Z,24.85
2019-04-01T15:55:50.907Z,22.90
2019-04-01T15:58:19.620Z,26.35
2019-04-01T16:00:48.071Z,25.02
2019-04-01T16:03:16.605Z,23.47
2019-04-01T16:05:45.040Z,24.43
2019-04-01T16:08:13.762Z,24.50
2019-04-01T16:10:42.210Z,25.45
2019-04-01T16:13:10.687Z,24.30
2019-04-01T16:15:39.422Z,22.62
2019-04-01T16:18:08.136Z,28.15
2019-04-01T16:20:36.858Z,30.70
2019-04-01T16:23:05.321Z,26.15
2019-04-01T16:25:37.324Z,26.42
2019-04-01T16:28:04.619Z,27.58
2019-04-01T16:30:33.325Z,29.70
2019-04-01T16:33:02.041Z,28.60
2019-04-01T16:35:30.509Z,26.80
2019-04-01T16:37:59.507Z,26.00
2019-04-01T16:40:28.091Z,28.47
2019-04-01T16:42:56.525Z,27.40
2019-04-01T16:45:25.239Z,28.70
2019-04-01T16:47:53.691Z,26.80
2019-04-01T16:50:22.162Z,26.95
2019-04-01T16:52:50.656Z,28.65
2019-04-01T16:55:19.306Z,30.20
2019-04-01T16:57:48.005Z,28.12
2019-04-01T17:00:17.185Z,27.30
2019-04-01T17:02:45.905Z,27.20
2019-04-01T17:05:15.291Z,28.55
2019-04-01T17:07:43.997Z,28.73
2019-04-01T17:10:20.710Z,28.05
2019-04-01T17:12:49.250Z,29.92
2019-04-01T17:15:17.700Z,29.00
2019-04-01T17:17:46.414Z,29.72
2019-04-01T17:20:14.931Z,29.75
2019-04-01T17:22:43.396Z,29.52
2019-04-01T17:25:11.974Z,29.63
2019-04-01T17:27:40.515Z,30.68
2019-04-01T17:30:09.889Z,31.17
2019-04-01T17:32:38.445Z,29.35
2019-04-01T17:35:07.388Z,30.52
2019-04-01T17:37:36.113Z,29.77
2019-04-01T17:40:07.689Z,29.27
2019-04-01T17:42:39.102Z,29.85
2019-04-01T17:45:24.703Z,28.90
2019-04-01T17:47:53.229Z,29.27
2019-04-01T17:50:21.678Z,29.37
2019-04-01T17:52:50.392Z,30.02
2019-04-01T17:55:19.101Z,29.95
2019-04-01T17:57:47.561Z,29.40
2019-04-01T18:00:24.510Z,30.50
2019-04-01T18:02:52.953Z,31.60
2019-04-01T18:05:22.115Z,30.17
2019-04-01T18:07:50.563Z,31.20
2019-04-01T18:10:19.483Z,29.65
2019-04-01T18:12:47.916Z,31.07
2019-04-01T18:15:16.715Z,30.27
2019-04-01T18:17:45.176Z,30.85
2019-04-01T18:20:14.011Z,30.85
2019-04-01T18:22:42.479Z,31.17
2019-04-01T18:25:11.394Z,30.52
2019-04-01T18:27:40.142Z,29.85
2019-04-01T18:30:09.693Z,30.05
2019-04-01T18:32:38.278Z,29.75
2019-04-01T18:35:06.973Z,31.55
2019-04-01T18:37:35.469Z,29.27
2019-04-01T18:40:05.585Z,30.90
2019-04-01T18:42:34.336Z,30.43
2019-04-01T18:45:03.241Z,31.02
2019-04-01T18:47:31.989Z,30.75
2019-04-01T18:50:00.705Z,31.33
2019-04-01T18:52:29.405Z,30.23
2019-04-01T18:54:58.129Z,30.32
2019-04-01T18:57:27.373Z,31.52
2019-04-01T18:59:56.205Z,31.52
2019-04-01T19:02:24.650Z,32.28
2019-04-01T19:04:53.375Z,31.73
2019-04-01T19:07:22.143Z,32.03
2019-04-01T19:09:50.806Z,31.87
2019-04-01T19:12:19.329Z,31.35
2019-04-01T19:14:47.761Z,30.80
2019-04-01T19:17:16.487Z,31.33
2019-04-01T19:19:47.158Z,32.48
2019-04-01T19:22:15.145Z,32.83
2019-04-01T19:24:43.908Z,32.33
2019-04-01T19:27:12.635Z,32.80
2019-04-01T19:29:42.883Z,32.20
2019-04-01T19:32:14.623Z,32.88
2019-04-01T19:34:41.901Z,32.50
2019-04-01T19:37:10.374Z,31.15
2019-04-01T19:39:39.077Z,33.50
2019-04-01T19:42:07.513Z,32.53
2019-04-01T19:44:35.984Z,31.93
2019-04-01T19:47:04.428Z,33.92
2019-04-01T19:49:33.142Z,31.10
2019-04-01T19:52:02.281Z,32.03
2019-04-01T19:54:32.796Z,32.65
2019-04-01T19:57:01.189Z,33.13
2019-04-01T19:59:29.729Z,32.67
2019-04-01T20:01:58.349Z,32.93
2019-04-01T20:04:27.198Z,31.60
2019-04-01T20:06:55.666Z,32.13
2019-04-01T20:09:24.379Z,32.90
2019-04-01T20:11:52.850Z,31.55
2019-04-01T20:14:21.557Z,33.88
2019-04-01T20:16:50.023Z,33.23
2019-04-01T20:19:18.469Z,32.33
2019-04-01T20:21:47.544Z,32.03
2019-04-01T20:24:16.370Z,33.28
2019-04-01T20:26:45.094Z,32.00
2019-04-01T20:29:13.543Z,32.23
2019-04-01T20:31:42.038Z,33.55
2019-04-01T20:34:19.470Z,33.23
2019-04-01T20:36:40.650Z,32.45
2019-04-01T20:39:09.110Z,33.25
2019-04-01T20:41:37.622Z,31.85
2019-04-01T20:44:06.144Z,33.88
2019-04-01T20:46:34.603Z,33.35
2019-04-01T20:49:03.075Z,32.67
2019-04-01T20:51:31.516Z,34.15
2019-04-01T20:53:59.982Z,33.10
2019-04-01T20:56:28.427Z,32.17
2019-04-01T20:58:56.880Z,33.30
2019-04-01T21:01:25.400Z,34.80
2019-04-01T21:03:53.881Z,33.33
2019-04-01T21:06:22.404Z,33.50
2019-04-01T21:08:50.868Z,33.92
2019-04-01T21:11:19.329Z,34.18
2019-04-01T21:13:47.778Z,34.85
2019-04-01T21:16:16.242Z,33.05
2019-04-01T21:18:44.690Z,33.85
2019-04-01T21:21:13.402Z,34.70
2019-04-01T21:23:41.860Z,35.40
2019-04-01T21:26:10.322Z,33.15
2019-04-01T21:28:38.770Z,34.88
2019-04-01T21:31:07.490Z,34.60
2019-04-01T21:33:35.945Z,32.70
2019-04-01T21:36:06.067Z,34.15
2019-04-01T21:38:35.336Z,34.70
2019-04-01T21:41:03.878Z,35.70
2019-04-01T21:43:32.323Z,35.92
2019-04-01T21:46:01.025Z,35.78
2019-04-01T21:48:29.480Z,37.45
2019-04-01T21:50:57.934Z,35.38
2019-04-01T21:53:26.408Z,37.95
2019-04-01T21:55:54.839Z,37.17
2019-04-01T21:58:23.556Z,36.77
2019-04-01T22:00:57.070Z,37.35
2019-04-01T22:03:25.525Z,37.40
2019-04-01T22:05:53.960Z,37.13
2019-04-01T22:08:22.518Z,37.17
2019-04-01T22:10:50.955Z,38.45
2019-04-01T22:13:19.657Z,37.25
2019-04-01T22:15:50.060Z,38.67
2019-04-01T22:18:18.549Z,39.48
2019-04-01T22:20:47.007Z,40.60
2019-04-01T22:23:15.464Z,42.35
2019-04-01T22:25:43.921Z,40.67
2019-04-01T22:28:12.371Z,39.15
2019-04-01T22:30:41.091Z,41.20
2019-04-01T22:33:11.119Z,41.23
2019-04-01T22:35:41.519Z,41.80
2019-04-01T22:38:10.030Z,41.53
2019-04-01T22:40:38.470Z,40.63
2019-04-01T22:43:06.931Z,40.73
2019-04-01T22:45:35.635Z,38.65
2019-04-01T22:48:04.378Z,40.90
2019-04-01T22:50:32.822Z,41.98
2019-04-01T22:53:01.541Z,40.12
2019-04-01T22:55:29.989Z,42.30
2019-04-01T22:57:58.721Z,41.58
2019-04-01T23:00:27.409Z,44.60
2019-04-01T23:02:56.155Z,41.88
2019-04-01T23:05:24.858Z,43.02
2019-04-01T23:07:53.562Z,41.85
2019-04-01T23:10:22.021Z,44.60
2019-04-01T23:12:51.169Z,43.73
2019-04-01T23:15:20.747Z,43.42
2019-04-01T23:17:49.530Z,42.23
2019-04-01T23:37:42.478Z,44.08
2019-04-01T23:40:11.062Z,43.48
2019-04-01T23:42:39.517Z,44.00
2019-04-01T23:45:08.286Z,42.73
2019-04-01T23:47:36.746Z,42.03
2019-04-01T23:50:09.133Z,40.17
2019-04-01T23:52:39.066Z,41.15
2019-04-01T23:55:08.017Z,41.48
2019-04-01T23:57:36.722Z,41.33
